WAAA/UPG METAR and TAF weather

Enter ICAO airport designator
Station Type Date Time Source
WAAA METAR 2021/09/16 22:00 UTC NOAA

WAAA 162200Z VRB01KT 9999 FEW019 23/22 Q1010 NOSIG


Station Type Date Time Source
WAAA Decoded METAR 2021/09/16 22:00 UTC NOAA

Ujung Pandang / Hasanuddin, Indonesia (WAAA) 05-04S 119-33E 14M
Sep 16, 2021 - 06:00 PM EDT / 2021.09.16 2200 UTC
Wind: Variable at 1 MPH (1 KT):0
Visibility: greater than 7 mile(s):0
Sky conditions: mostly clear
Temperature: 73 F (23 C)
Dew Point: 71 F (22 C)
Relative Humidity: 94%
Pressure (altimeter): 29.83 in. Hg (1010 hPa)
ob: WAAA 162200Z VRB01KT 9999 FEW019 23/22 Q1010 NOSIG
cycle: 22

Station Type Date Time Source
WAAA TAF 2021/09/16 18:54 UTC NOAA

TAF TAF WAAA 161700Z 1618/1724 12003KT 8000 FEW019
BECMG 1701/1703 30010KT 9999
BECMG 1711/1713 14003KT 8000

Example: see airport list